Terminal Aerodrome Forecast
Issued by NWS

Home | Current Version | Previous Version | Text Only | Print | Product List | Glossary On
Versions: 1 2 3 4 5 6 7 8 9 10 11 12 13 14 15 16 17 18 19 20 21 22 23 24 25 26 27 28 29
000
FTAK31 PANC 012333
TAFADL
TAF
PADL 012333Z 0200/0224 20017G28KT P6SM VCSH SCT020 OVC025
      TEMPO 0200/0203 -RA BKN020 OVC025
     FM020300 21015G25KT P6SM VCFG SCT008 BKN020 OVC030
      WS020/26040KT
     FM020700 20008KT 5SM BR SCT008 BKN012 OVC020 WS020/25040KT
     FM021000 20005KT 3SM BR BKN005 OVC010
     FM022000 21008KT P6SM SCT010 BKN015 OVC025=

USA.gov is the U.S. government's official web portal to all federal, state and local government web resources and services.